モントリオール/トルドー の空港の天気 - METARとTAF

モントリオール・ピエール・エリオット・トルドー国際空港 ( CYUL / YUL ) - カナダ ケベック州モントリオール
飛行場実況気象(Metar)
観測時間05/20 19:00 EDT (05/20 23:00 UTC)
風向・風速西 6m/s 瞬間風速13m/s
視程10km以上
天気現象
全天の4割程度の雲 雲底高度 1680m
全天の8割程度の雲 雲底高度 2130m
全天の8割程度の雲 雲底高度 3050m
全天の8割程度の雲 雲底高度 7320m
気温19℃
湿度52%
気圧1002.6hPa
METARCYUL 202300Z 28011G25KT 30SM SCT055 BKN070 BKN100 BKN240 19/09 A2960 RMK SC3AC2AC1CI1 SLP026 DENSITY ALT 1100FT
過去の天気等 Google飛行場航空写真 Wunderground天気予報

過去48時間のMETAR

飛行場予報(TAF)
発表時間: 5/20 16:38 EDT (5/20 20:38 UTC)
予報対象時間: 20日17時 EDT ~ 21日14時 EDT
風向・風速西南西 10m/s 瞬間風速 15m/s
視程10km以上
全天の8割程度の雲 雲底高度 1220m
20日17時 EDT ~ 20日18時 EDT に一時的に
視程10km以上
天気現象弱いしゅう雨
20日20時 EDT から
風向・風速西 8m/s 瞬間風速 13m/s
視程10km以上
全天を覆う雲 雲底高度 1220m
20日22時 EDT から
風向・風速西北西 6m/s 瞬間風速 11m/s
視程10km以上
全天を覆う雲 雲底高度 1220m
20日22時 EDT ~ 20日24時 EDT に一時的に
視程10km以上
天気現象弱いしゅう雨
21日2時 EDT から
風向・風速西 8m/s
視程10km以上
全天を覆う雲 雲底高度 910m
21日9時 EDT ~ 21日11時 EDT に徐々に
風向・風速西北西 10m/s 瞬間風速 15m/s
TAF CYUL 202038Z 2021/2118 24020G30KT P6SM BKN040
TEMPO 2021/2022 P6SM -SHRA
FM210000 27015G25KT P6SM OVC040
FM210200 30012G22KT P6SM OVC040
TEMPO 2102/2104 P6SM -SHRA
FM210600 27015KT P6SM OVC030
BECMG 2113/2115 30020G30KT RMK NXT FCST BY 210000Z